Terminal Aerodrome Forecast
Issued by NWS

Home | Current Version | Previous Version | Text Only | Print | Product List | Glossary On
Versions: 1 2 3 4 5 6 7 8 9 10 11 12 13 14 15 16 17 18 19 20
803
FTUS43 KDVN 081010 AAA
TAFBRL
TAF AMD
KBRL 081010Z 0810/0906 32015G25KT P6SM VCSH OVC025
      TEMPO 0811/0813 1SM -SN BR SCT009 OVC018
     FM081300 31019G29KT 2SM -SN OVC018
     FM081700 32016G26KT 3SM -SHSN OVC015=

USA.gov is the U.S. government's official web portal to all federal, state and local government web resources and services.